sensor_id;sensor_type;location;lat;lon;timestamp;P1;durP1;ratioP1;P2;durP2;ratioP2
6485;SDS011;3276;48.490;9.222;2023-04-06T00:00:50;73.23;;;28.47;;
6485;SDS011;3276;48.490;9.222;2023-04-06T00:03:17;79.07;;;29.98;;
6485;SDS011;3276;48.490;9.222;2023-04-06T00:05:42;81.00;;;46.42;;
6485;SDS011;3276;48.490;9.222;2023-04-06T00:08:08;78.33;;;43.97;;
6485;SDS011;3276;48.490;9.222;2023-04-06T00:10:34;75.30;;;32.67;;
6485;SDS011;3276;48.490;9.222;2023-04-06T00:12:59;79.53;;;43.97;;
6485;SDS011;3276;48.490;9.222;2023-04-06T00:15:25;76.13;;;33.07;;
6485;SDS011;3276;48.490;9.222;2023-04-06T00:17:51;75.20;;;30.30;;
6485;SDS011;3276;48.490;9.222;2023-04-06T00:20:17;80.93;;;52.17;;
6485;SDS011;3276;48.490;9.222;2023-04-06T00:22:43;84.57;;;50.38;;
6485;SDS011;3276;48.490;9.222;2023-04-06T00:25:09;71.07;;;24.90;;
6485;SDS011;3276;48.490;9.222;2023-04-06T00:27:36;80.47;;;44.75;;
6485;SDS011;3276;48.490;9.222;2023-04-06T00:30:03;76.30;;;34.67;;
6485;SDS011;3276;48.490;9.222;2023-04-06T00:32:29;80.10;;;31.35;;
6485;SDS011;3276;48.490;9.222;2023-04-06T00:34:55;76.10;;;38.40;;
6485;SDS011;3276;48.490;9.222;2023-04-06T00:37:21;76.37;;;37.30;;
6485;SDS011;3276;48.490;9.222;2023-04-06T00:39:46;84.50;;;51.43;;
6485;SDS011;3276;48.490;9.222;2023-04-06T00:42:12;83.50;;;49.43;;
6485;SDS011;3276;48.490;9.222;2023-04-06T00:44:39;75.57;;;41.45;;
6485;SDS011;3276;48.490;9.222;2023-04-06T00:47:08;85.25;;;55.58;;
6485;SDS011;3276;48.490;9.222;2023-04-06T00:49:34;75.18;;;32.03;;
6485;SDS011;3276;48.490;9.222;2023-04-06T00:52:00;72.73;;;24.80;;
6485;SDS011;3276;48.490;9.222;2023-04-06T00:54:26;72.67;;;27.30;;
6485;SDS011;3276;48.490;9.222;2023-04-06T00:56:52;83.22;;;44.20;;
6485;SDS011;3276;48.490;9.222;2023-04-06T00:59:18;70.83;;;26.80;;
6485;SDS011;3276;48.490;9.222;2023-04-06T01:01:44;77.50;;;31.03;;
6485;SDS011;3276;48.490;9.222;2023-04-06T01:04:09;85.23;;;52.73;;
6485;SDS011;3276;48.490;9.222;2023-04-06T01:06:36;74.55;;;34.53;;
6485;SDS011;3276;48.490;9.222;2023-04-06T01:09:01;72.97;;;26.63;;
6485;SDS011;3276;48.490;9.222;2023-04-06T01:11:27;75.93;;;37.70;;
6485;SDS011;3276;48.490;9.222;2023-04-06T01:13:53;74.00;;;26.10;;
6485;SDS011;3276;48.490;9.222;2023-04-06T01:16:18;77.17;;;30.53;;
6485;SDS011;3276;48.490;9.222;2023-04-06T01:18:44;73.57;;;23.67;;
6485;SDS011;3276;48.490;9.222;2023-04-06T01:21:10;75.27;;;30.70;;
6485;SDS011;3276;48.490;9.222;2023-04-06T01:23:41;75.00;;;24.23;;
6485;SDS011;3276;48.490;9.222;2023-04-06T01:26:08;75.75;;;23.75;;
6485;SDS011;3276;48.490;9.222;2023-04-06T01:28:33;76.87;;;31.83;;
6485;SDS011;3276;48.490;9.222;2023-04-06T01:30:59;74.80;;;28.87;;
6485;SDS011;3276;48.490;9.222;2023-04-06T01:33:24;76.17;;;30.13;;
6485;SDS011;3276;48.490;9.222;2023-04-06T01:35:50;77.93;;;36.37;;
6485;SDS011;3276;48.490;9.222;2023-04-06T01:38:16;76.90;;;31.23;;
6485;SDS011;3276;48.490;9.222;2023-04-06T01:40:41;73.27;;;29.53;;
6485;SDS011;3276;48.490;9.222;2023-04-06T01:43:07;79.40;;;36.00;;
6485;SDS011;3276;48.490;9.222;2023-04-06T01:45:32;83.20;;;45.43;;
6485;SDS011;3276;48.490;9.222;2023-04-06T01:47:58;76.43;;;37.47;;
6485;SDS011;3276;48.490;9.222;2023-04-06T01:50:23;73.70;;;31.63;;
6485;SDS011;3276;48.490;9.222;2023-04-06T01:52:49;77.87;;;30.80;;
6485;SDS011;3276;48.490;9.222;2023-04-06T01:55:14;80.07;;;32.70;;
6485;SDS011;3276;48.490;9.222;2023-04-06T01:57:40;82.53;;;39.53;;
6485;SDS011;3276;48.490;9.222;2023-04-06T02:00:06;78.57;;;33.60;;
6485;SDS011;3276;48.490;9.222;2023-04-06T02:02:32;83.03;;;41.95;;
6485;SDS011;3276;48.490;9.222;2023-04-06T02:04:57;76.43;;;36.37;;
6485;SDS011;3276;48.490;9.222;2023-04-06T02:07:23;74.27;;;29.20;;
6485;SDS011;3276;48.490;9.222;2023-04-06T02:09:48;75.90;;;33.87;;
6485;SDS011;3276;48.490;9.222;2023-04-06T02:12:14;79.50;;;33.50;;
6485;SDS011;3276;48.490;9.222;2023-04-06T02:14:40;75.87;;;33.63;;
6485;SDS011;3276;48.490;9.222;2023-04-06T02:17:05;74.33;;;29.13;;
6485;SDS011;3276;48.490;9.222;2023-04-06T02:19:31;80.17;;;41.80;;
6485;SDS011;3276;48.490;9.222;2023-04-06T02:21:57;71.67;;;26.67;;
6485;SDS011;3276;48.490;9.222;2023-04-06T02:24:22;76.47;;;28.03;;
6485;SDS011;3276;48.490;9.222;2023-04-06T02:26:48;73.17;;;26.37;;
6485;SDS011;3276;48.490;9.222;2023-04-06T02:29:13;73.23;;;27.90;;
6485;SDS011;3276;48.490;9.222;2023-04-06T02:31:39;84.33;;;44.43;;
6485;SDS011;3276;48.490;9.222;2023-04-06T02:34:04;74.73;;;25.03;;
6485;SDS011;3276;48.490;9.222;2023-04-06T02:36:30;76.70;;;33.70;;
6485;SDS011;3276;48.490;9.222;2023-04-06T02:38:56;73.30;;;26.40;;
6485;SDS011;3276;48.490;9.222;2023-04-06T02:41:21;88.77;;;40.07;;
6485;SDS011;3276;48.490;9.222;2023-04-06T02:43:47;80.63;;;36.40;;
6485;SDS011;3276;48.490;9.222;2023-04-06T02:46:12;73.87;;;27.90;;
6485;SDS011;3276;48.490;9.222;2023-04-06T02:48:38;73.37;;;26.23;;
6485;SDS011;3276;48.490;9.222;2023-04-06T02:51:03;73.97;;;28.27;;
6485;SDS011;3276;48.490;9.222;2023-04-06T02:53:29;74.27;;;30.20;;
6485;SDS011;3276;48.490;9.222;2023-04-06T02:55:54;78.60;;;32.67;;
6485;SDS011;3276;48.490;9.222;2023-04-06T02:58:20;71.50;;;28.55;;
6485;SDS011;3276;48.490;9.222;2023-04-06T03:00:46;80.83;;;33.43;;
6485;SDS011;3276;48.490;9.222;2023-04-06T03:03:11;73.33;;;24.50;;
6485;SDS011;3276;48.490;9.222;2023-04-06T03:05:37;80.50;;;33.37;;
6485;SDS011;3276;48.490;9.222;2023-04-06T03:08:02;75.03;;;31.60;;
6485;SDS011;3276;48.490;9.222;2023-04-06T03:10:28;74.30;;;24.10;;
6485;SDS011;3276;48.490;9.222;2023-04-06T03:12:54;76.27;;;25.97;;
6485;SDS011;3276;48.490;9.222;2023-04-06T03:15:19;76.07;;;30.73;;
6485;SDS011;3276;48.490;9.222;2023-04-06T03:17:44;78.90;;;35.03;;
6485;SDS011;3276;48.490;9.222;2023-04-06T03:20:10;71.57;;;24.47;;
6485;SDS011;3276;48.490;9.222;2023-04-06T03:22:36;82.70;;;38.67;;
6485;SDS011;3276;48.490;9.222;2023-04-06T03:25:01;79.97;;;36.20;;
6485;SDS011;3276;48.490;9.222;2023-04-06T03:27:27;75.83;;;21.80;;
6485;SDS011;3276;48.490;9.222;2023-04-06T03:29:52;79.53;;;31.63;;
6485;SDS011;3276;48.490;9.222;2023-04-06T03:32:18;72.90;;;22.00;;
6485;SDS011;3276;48.490;9.222;2023-04-06T03:34:43;75.27;;;25.60;;
6485;SDS011;3276;48.490;9.222;2023-04-06T03:37:09;73.67;;;21.90;;
6485;SDS011;3276;48.490;9.222;2023-04-06T03:39:34;74.17;;;23.43;;
6485;SDS011;3276;48.490;9.222;2023-04-06T03:42:00;74.00;;;24.87;;
6485;SDS011;3276;48.490;9.222;2023-04-06T03:44:26;73.30;;;25.27;;
6485;SDS011;3276;48.490;9.222;2023-04-06T03:46:51;78.07;;;20.10;;
6485;SDS011;3276;48.490;9.222;2023-04-06T03:49:16;75.07;;;28.80;;
6485;SDS011;3276;48.490;9.222;2023-04-06T03:51:42;73.60;;;24.37;;
6485;SDS011;3276;48.490;9.222;2023-04-06T03:54:07;73.57;;;22.47;;
6485;SDS011;3276;48.490;9.222;2023-04-06T03:56:33;76.47;;;24.87;;
6485;SDS011;3276;48.490;9.222;2023-04-06T03:58:58;75.77;;;25.23;;
6485;SDS011;3276;48.490;9.222;2023-04-06T04:01:24;73.50;;;25.87;;
6485;SDS011;3276;48.490;9.222;2023-04-06T04:03:50;77.85;;;25.65;;
6485;SDS011;3276;48.490;9.222;2023-04-06T04:06:17;77.68;;;26.17;;
6485;SDS011;3276;48.490;9.222;2023-04-06T04:08:42;77.80;;;26.07;;
6485;SDS011;3276;48.490;9.222;2023-04-06T04:11:08;76.50;;;25.67;;
6485;SDS011;3276;48.490;9.222;2023-04-06T04:13:33;77.70;;;24.43;;
6485;SDS011;3276;48.490;9.222;2023-04-06T04:15:59;75.40;;;23.97;;
6485;SDS011;3276;48.490;9.222;2023-04-06T04:18:25;76.37;;;27.13;;
6485;SDS011;3276;48.490;9.222;2023-04-06T04:20:50;76.40;;;26.37;;
6485;SDS011;3276;48.490;9.222;2023-04-06T04:23:16;75.57;;;29.67;;
6485;SDS011;3276;48.490;9.222;2023-04-06T04:25:42;80.33;;;30.13;;
6485;SDS011;3276;48.490;9.222;2023-04-06T04:28:08;77.28;;;27.30;;
6485;SDS011;3276;48.490;9.222;2023-04-06T04:30:34;76.40;;;31.03;;
6485;SDS011;3276;48.490;9.222;2023-04-06T04:32:59;75.13;;;24.83;;
6485;SDS011;3276;48.490;9.222;2023-04-06T04:35:26;72.40;;;23.83;;
6485;SDS011;3276;48.490;9.222;2023-04-06T04:37:51;78.50;;;28.77;;
6485;SDS011;3276;48.490;9.222;2023-04-06T04:40:17;81.50;;;29.30;;
6485;SDS011;3276;48.490;9.222;2023-04-06T04:42:42;77.80;;;27.27;;
6485;SDS011;3276;48.490;9.222;2023-04-06T04:45:08;76.60;;;27.80;;
6485;SDS011;3276;48.490;9.222;2023-04-06T04:47:34;83.80;;;26.90;;
6485;SDS011;3276;48.490;9.222;2023-04-06T04:50:00;78.17;;;26.07;;
6485;SDS011;3276;48.490;9.222;2023-04-06T04:52:25;75.40;;;24.87;;
6485;SDS011;3276;48.490;9.222;2023-04-06T04:54:51;75.97;;;28.33;;
6485;SDS011;3276;48.490;9.222;2023-04-06T04:57:16;80.30;;;31.10;;
6485;SDS011;3276;48.490;9.222;2023-04-06T04:59:42;77.60;;;27.90;;
6485;SDS011;3276;48.490;9.222;2023-04-06T05:02:08;78.10;;;25.87;;
6485;SDS011;3276;48.490;9.222;2023-04-06T05:04:33;79.20;;;23.77;;
6485;SDS011;3276;48.490;9.222;2023-04-06T05:07:06;82.65;;;32.45;;
6485;SDS011;3276;48.490;9.222;2023-04-06T05:09:33;84.13;;;22.60;;
6485;SDS011;3276;48.490;9.222;2023-04-06T05:11:59;78.90;;;27.47;;
6485;SDS011;3276;48.490;9.222;2023-04-06T05:14:26;77.03;;;23.08;;
6485;SDS011;3276;48.490;9.222;2023-04-06T05:16:52;78.28;;;22.08;;
6485;SDS011;3276;48.490;9.222;2023-04-06T05:19:18;76.93;;;27.20;;
6485;SDS011;3276;48.490;9.222;2023-04-06T05:21:43;83.33;;;28.90;;
6485;SDS011;3276;48.490;9.222;2023-04-06T05:24:09;87.30;;;26.77;;
6485;SDS011;3276;48.490;9.222;2023-04-06T05:26:35;80.85;;;29.25;;
6485;SDS011;3276;48.490;9.222;2023-04-06T05:29:01;86.07;;;27.63;;
6485;SDS011;3276;48.490;9.222;2023-04-06T05:31:27;79.38;;;28.23;;
6485;SDS011;3276;48.490;9.222;2023-04-06T05:33:53;82.30;;;29.10;;
6485;SDS011;3276;48.490;9.222;2023-04-06T05:36:19;84.70;;;28.42;;
6485;SDS011;3276;48.490;9.222;2023-04-06T05:38:45;78.30;;;29.90;;
6485;SDS011;3276;48.490;9.222;2023-04-06T05:41:11;78.47;;;30.58;;
6485;SDS011;3276;48.490;9.222;2023-04-06T05:43:37;78.43;;;32.50;;
6485;SDS011;3276;48.490;9.222;2023-04-06T05:46:03;85.10;;;48.78;;
6485;SDS011;3276;48.490;9.222;2023-04-06T05:48:29;81.53;;;30.75;;
6485;SDS011;3276;48.490;9.222;2023-04-06T05:50:55;88.67;;;47.17;;
6485;SDS011;3276;48.490;9.222;2023-04-06T05:53:21;86.27;;;47.23;;
6485;SDS011;3276;48.490;9.222;2023-04-06T05:55:47;89.97;;;56.10;;
6485;SDS011;3276;48.490;9.222;2023-04-06T05:58:13;84.63;;;41.77;;
6485;SDS011;3276;48.490;9.222;2023-04-06T06:00:39;76.47;;;41.58;;
6485;SDS011;3276;48.490;9.222;2023-04-06T06:03:07;83.72;;;51.72;;
6485;SDS011;3276;48.490;9.222;2023-04-06T06:05:33;89.97;;;59.03;;
6485;SDS011;3276;48.490;9.222;2023-04-06T06:07:59;90.97;;;55.45;;
6485;SDS011;3276;48.490;9.222;2023-04-06T06:10:27;88.93;;;63.00;;
6485;SDS011;3276;48.490;9.222;2023-04-06T06:12:53;96.70;;;80.05;;
6485;SDS011;3276;48.490;9.222;2023-04-06T06:15:19;106.18;;;91.40;;
6485;SDS011;3276;48.490;9.222;2023-04-06T06:17:45;97.10;;;76.30;;
6485;SDS011;3276;48.490;9.222;2023-04-06T06:20:11;84.03;;;59.37;;
6485;SDS011;3276;48.490;9.222;2023-04-06T06:22:37;123.43;;;111.43;;
6485;SDS011;3276;48.490;9.222;2023-04-06T06:25:05;256.37;;;238.50;;
6485;SDS011;3276;48.490;9.222;2023-04-06T06:27:31;166.33;;;151.60;;
6485;SDS011;3276;48.490;9.222;2023-04-06T06:29:56;405.00;;;378.80;;
6485;SDS011;3276;48.490;9.222;2023-04-06T06:32:23;208.33;;;192.40;;
6485;SDS011;3276;48.490;9.222;2023-04-06T06:34:48;131.30;;;119.27;;
6485;SDS011;3276;48.490;9.222;2023-04-06T06:37:14;198.63;;;183.03;;
6485;SDS011;3276;48.490;9.222;2023-04-06T06:39:40;179.80;;;165.77;;
6485;SDS011;3276;48.490;9.222;2023-04-06T06:42:05;331.47;;;309.87;;
6485;SDS011;3276;48.490;9.222;2023-04-06T06:44:31;206.63;;;190.87;;
6485;SDS011;3276;48.490;9.222;2023-04-06T06:46:57;305.67;;;285.83;;
6485;SDS011;3276;48.490;9.222;2023-04-06T06:49:23;301.37;;;280.77;;
6485;SDS011;3276;48.490;9.222;2023-04-06T06:51:49;155.57;;;142.00;;
6485;SDS011;3276;48.490;9.222;2023-04-06T06:54:15;319.37;;;298.53;;
6485;SDS011;3276;48.490;9.222;2023-04-06T06:56:41;285.57;;;266.80;;
6485;SDS011;3276;48.490;9.222;2023-04-06T06:59:06;246.73;;;229.57;;
6485;SDS011;3276;48.490;9.222;2023-04-06T07:01:32;281.20;;;262.13;;
6485;SDS011;3276;48.490;9.222;2023-04-06T07:03:59;459.20;;;431.93;;
6485;SDS011;3276;48.490;9.222;2023-04-06T07:06:25;252.63;;;234.97;;
6485;SDS011;3276;48.490;9.222;2023-04-06T07:08:51;269.90;;;251.27;;
6485;SDS011;3276;48.490;9.222;2023-04-06T07:11:17;277.53;;;258.77;;
6485;SDS011;3276;48.490;9.222;2023-04-06T07:13:42;368.90;;;345.33;;
6485;SDS011;3276;48.490;9.222;2023-04-06T07:16:08;210.13;;;194.63;;
6485;SDS011;3276;48.490;9.222;2023-04-06T07:18:34;427.33;;;401.27;;
6485;SDS011;3276;48.490;9.222;2023-04-06T07:21:00;286.13;;;266.60;;
6485;SDS011;3276;48.490;9.222;2023-04-06T07:23:26;333.00;;;310.83;;
6485;SDS011;3276;48.490;9.222;2023-04-06T07:25:51;277.90;;;258.30;;
6485;SDS011;3276;48.490;9.222;2023-04-06T07:28:18;358.13;;;334.83;;
6485;SDS011;3276;48.490;9.222;2023-04-06T07:30:44;318.77;;;298.13;;
6485;SDS011;3276;48.490;9.222;2023-04-06T07:33:10;351.23;;;329.80;;
6485;SDS011;3276;48.490;9.222;2023-04-06T07:35:37;287.80;;;270.43;;
6485;SDS011;3276;48.490;9.222;2023-04-06T07:38:03;158.93;;;146.00;;
6485;SDS011;3276;48.490;9.222;2023-04-06T07:40:29;242.77;;;226.40;;
6485;SDS011;3276;48.490;9.222;2023-04-06T07:42:56;274.47;;;255.77;;
6485;SDS011;3276;48.490;9.222;2023-04-06T07:45:22;170.80;;;157.17;;
6485;SDS011;3276;48.490;9.222;2023-04-06T07:47:47;121.87;;;110.00;;
6485;SDS011;3276;48.490;9.222;2023-04-06T07:50:13;302.30;;;281.43;;
6485;SDS011;3276;48.490;9.222;2023-04-06T07:52:38;156.13;;;142.17;;
6485;SDS011;3276;48.490;9.222;2023-04-06T07:55:04;108.07;;;97.10;;
6485;SDS011;3276;48.490;9.222;2023-04-06T07:57:30;158.30;;;144.97;;
6485;SDS011;3276;48.490;9.222;2023-04-06T07:59:55;157.07;;;143.90;;
6485;SDS011;3276;48.490;9.222;2023-04-06T08:02:21;211.27;;;195.63;;
6485;SDS011;3276;48.490;9.222;2023-04-06T08:04:47;217.57;;;201.77;;
6485;SDS011;3276;48.490;9.222;2023-04-06T08:07:12;172.30;;;158.47;;
6485;SDS011;3276;48.490;9.222;2023-04-06T08:09:38;228.50;;;212.47;;
6485;SDS011;3276;48.490;9.222;2023-04-06T08:12:03;89.37;;;66.33;;
6485;SDS011;3276;48.490;9.222;2023-04-06T08:14:31;296.17;;;276.27;;
6485;SDS011;3276;48.490;9.222;2023-04-06T08:16:56;278.67;;;260.20;;
6485;SDS011;3276;48.490;9.222;2023-04-06T08:19:22;248.13;;;230.77;;
6485;SDS011;3276;48.490;9.222;2023-04-06T08:21:47;298.07;;;278.70;;
6485;SDS011;3276;48.490;9.222;2023-04-06T08:24:13;136.30;;;123.87;;
6485;SDS011;3276;48.490;9.222;2023-04-06T08:26:40;506.10;;;477.23;;
6485;SDS011;3276;48.490;9.222;2023-04-06T08:29:06;421.67;;;394.80;;
6485;SDS011;3276;48.490;9.222;2023-04-06T08:31:34;433.70;;;406.37;;
6485;SDS011;3276;48.490;9.222;2023-04-06T08:34:01;336.53;;;314.40;;
6485;SDS011;3276;48.490;9.222;2023-04-06T08:36:28;234.13;;;215.93;;
6485;SDS011;3276;48.490;9.222;2023-04-06T08:38:53;418.73;;;393.23;;
6485;SDS011;3276;48.490;9.222;2023-04-06T08:41:19;484.03;;;455.07;;
6485;SDS011;3276;48.490;9.222;2023-04-06T08:43:49;453.07;;;426.03;;
6485;SDS011;3276;48.490;9.222;2023-04-06T08:46:20;368.07;;;343.20;;
6485;SDS011;3276;48.490;9.222;2023-04-06T08:48:46;483.47;;;453.77;;
6485;SDS011;3276;48.490;9.222;2023-04-06T08:51:15;389.07;;;363.93;;
6485;SDS011;3276;48.490;9.222;2023-04-06T08:53:40;432.50;;;407.20;;
6485;SDS011;3276;48.490;9.222;2023-04-06T08:56:06;307.03;;;287.53;;
6485;SDS011;3276;48.490;9.222;2023-04-06T08:58:34;322.10;;;300.87;;
6485;SDS011;3276;48.490;9.222;2023-04-06T09:01:02;304.87;;;285.40;;
6485;SDS011;3276;48.490;9.222;2023-04-06T09:03:35;301.83;;;283.43;;
6485;SDS011;3276;48.490;9.222;2023-04-06T09:06:03;241.83;;;225.13;;
6485;SDS011;3276;48.490;9.222;2023-04-06T09:08:30;286.83;;;267.57;;
6485;SDS011;3276;48.490;9.222;2023-04-06T09:10:55;218.80;;;203.07;;
6485;SDS011;3276;48.490;9.222;2023-04-06T09:13:21;195.70;;;180.87;;
6485;SDS011;3276;48.490;9.222;2023-04-06T09:15:46;226.10;;;210.00;;
6485;SDS011;3276;48.490;9.222;2023-04-06T09:18:32;157.40;;;144.43;;
6485;SDS011;3276;48.490;9.222;2023-04-06T09:21:04;116.43;;;104.97;;
6485;SDS011;3276;48.490;9.222;2023-04-06T09:23:31;256.47;;;238.70;;
6485;SDS011;3276;48.490;9.222;2023-04-06T09:26:13;290.50;;;269.57;;
6485;SDS011;3276;48.490;9.222;2023-04-06T09:31:13;207.20;;;191.37;;
6485;SDS011;3276;48.490;9.222;2023-04-06T09:33:40;139.47;;;126.57;;
6485;SDS011;3276;48.490;9.222;2023-04-06T09:36:07;239.20;;;222.27;;
6485;SDS011;3276;48.490;9.222;2023-04-06T09:38:38;326.33;;;305.97;;
6485;SDS011;3276;48.490;9.222;2023-04-06T09:41:20;327.60;;;306.77;;
6485;SDS011;3276;48.490;9.222;2023-04-06T09:44:04;179.33;;;164.67;;
6485;SDS011;3276;48.490;9.222;2023-04-06T09:46:40;118.13;;;107.13;;
6485;SDS011;3276;48.490;9.222;2023-04-06T09:49:07;167.93;;;154.17;;
6485;SDS011;3276;48.490;9.222;2023-04-06T09:51:38;206.67;;;191.37;;
6485;SDS011;3276;48.490;9.222;2023-04-06T09:54:05;167.30;;;154.40;;
6485;SDS011;3276;48.490;9.222;2023-04-06T09:56:34;198.00;;;183.63;;
6485;SDS011;3276;48.490;9.222;2023-04-06T09:59:05;193.93;;;179.07;;
6485;SDS011;3276;48.490;9.222;2023-04-06T10:01:37;255.03;;;237.47;;
6485;SDS011;3276;48.490;9.222;2023-04-06T10:06:46;134.07;;;122.80;;
6485;SDS011;3276;48.490;9.222;2023-04-06T10:09:17;257.03;;;240.67;;
6485;SDS011;3276;48.490;9.222;2023-04-06T10:11:47;247.53;;;230.43;;
6485;SDS011;3276;48.490;9.222;2023-04-06T10:14:13;152.97;;;140.10;;
6485;SDS011;3276;48.490;9.222;2023-04-06T10:16:40;235.73;;;219.33;;
6485;SDS011;3276;48.490;9.222;2023-04-06T10:19:10;302.10;;;282.03;;
6485;SDS011;3276;48.490;9.222;2023-04-06T10:21:40;324.37;;;302.47;;
6485;SDS011;3276;48.490;9.222;2023-04-06T10:24:10;204.43;;;189.53;;
6485;SDS011;3276;48.490;9.222;2023-04-06T10:26:37;202.57;;;187.70;;
6485;SDS011;3276;48.490;9.222;2023-04-06T10:29:03;195.13;;;180.20;;
6485;SDS011;3276;48.490;9.222;2023-04-06T10:31:29;293.47;;;273.93;;
6485;SDS011;3276;48.490;9.222;2023-04-06T10:33:58;212.27;;;196.63;;
6485;SDS011;3276;48.490;9.222;2023-04-06T10:36:28;87.73;;;77.30;;
6485;SDS011;3276;48.490;9.222;2023-04-06T10:39:01;125.00;;;113.97;;
6485;SDS011;3276;48.490;9.222;2023-04-06T10:41:36;279.23;;;261.23;;
6485;SDS011;3276;48.490;9.222;2023-04-06T10:44:07;176.23;;;162.07;;
6485;SDS011;3276;48.490;9.222;2023-04-06T10:46:33;307.37;;;287.87;;
6485;SDS011;3276;48.490;9.222;2023-04-06T10:49:11;237.13;;;220.37;;
6485;SDS011;3276;48.490;9.222;2023-04-06T10:51:37;280.37;;;261.77;;
6485;SDS011;3276;48.490;9.222;2023-04-06T10:54:03;335.40;;;314.40;;
6485;SDS011;3276;48.490;9.222;2023-04-06T10:56:31;133.57;;;121.53;;
6485;SDS011;3276;48.490;9.222;2023-04-06T10:59:01;203.07;;;187.80;;
6485;SDS011;3276;48.490;9.222;2023-04-06T11:01:27;258.83;;;241.33;;
6485;SDS011;3276;48.490;9.222;2023-04-06T11:03:53;261.23;;;243.37;;
6485;SDS011;3276;48.490;9.222;2023-04-06T11:08:54;276.53;;;258.90;;
6485;SDS011;3276;48.490;9.222;2023-04-06T11:11:21;288.83;;;269.63;;
6485;SDS011;3276;48.490;9.222;2023-04-06T11:13:52;225.07;;;209.67;;
6485;SDS011;3276;48.490;9.222;2023-04-06T11:16:22;138.57;;;126.80;;
6485;SDS011;3276;48.490;9.222;2023-04-06T11:18:54;299.00;;;279.07;;
6485;SDS011;3276;48.490;9.222;2023-04-06T11:21:31;247.73;;;231.17;;
6485;SDS011;3276;48.490;9.222;2023-04-06T11:24:11;201.33;;;186.57;;
6485;SDS011;3276;48.490;9.222;2023-04-06T11:26:38;184.83;;;171.03;;
6485;SDS011;3276;48.490;9.222;2023-04-06T11:29:04;330.67;;;306.73;;
6485;SDS011;3276;48.490;9.222;2023-04-06T11:31:30;267.00;;;249.43;;
6485;SDS011;3276;48.490;9.222;2023-04-06T11:33:56;305.10;;;286.17;;
6485;SDS011;3276;48.490;9.222;2023-04-06T11:36:22;192.10;;;177.57;;
6485;SDS011;3276;48.490;9.222;2023-04-06T11:38:48;214.80;;;199.53;;
6485;SDS011;3276;48.490;9.222;2023-04-06T11:41:14;260.43;;;242.63;;
6485;SDS011;3276;48.490;9.222;2023-04-06T11:43:46;187.63;;;173.90;;
6485;SDS011;3276;48.490;9.222;2023-04-06T11:46:16;266.57;;;247.40;;
6485;SDS011;3276;48.490;9.222;2023-04-06T11:48:44;317.00;;;297.37;;
6485;SDS011;3276;48.490;9.222;2023-04-06T11:51:10;175.63;;;161.80;;
6485;SDS011;3276;48.490;9.222;2023-04-06T11:53:43;266.50;;;249.00;;
6485;SDS011;3276;48.490;9.222;2023-04-06T11:56:10;274.70;;;256.77;;
6485;SDS011;3276;48.490;9.222;2023-04-06T11:58:36;300.83;;;282.67;;
6485;SDS011;3276;48.490;9.222;2023-04-06T12:01:05;348.80;;;326.23;;
6485;SDS011;3276;48.490;9.222;2023-04-06T12:03:33;376.67;;;353.23;;
6485;SDS011;3276;48.490;9.222;2023-04-06T12:05:59;301.00;;;281.67;;
6485;SDS011;3276;48.490;9.222;2023-04-06T12:08:25;320.23;;;299.87;;
6485;SDS011;3276;48.490;9.222;2023-04-06T12:10:50;438.50;;;406.77;;
6485;SDS011;3276;48.490;9.222;2023-04-06T12:13:16;283.33;;;264.97;;
6485;SDS011;3276;48.490;9.222;2023-04-06T12:15:41;352.30;;;331.03;;
6485;SDS011;3276;48.490;9.222;2023-04-06T12:18:07;363.57;;;339.50;;
6485;SDS011;3276;48.490;9.222;2023-04-06T12:20:32;401.13;;;373.30;;
6485;SDS011;3276;48.490;9.222;2023-04-06T12:23:01;267.50;;;249.47;;
6485;SDS011;3276;48.490;9.222;2023-04-06T12:25:27;265.67;;;248.07;;
6485;SDS011;3276;48.490;9.222;2023-04-06T12:27:52;233.80;;;217.33;;
6485;SDS011;3276;48.490;9.222;2023-04-06T12:30:18;379.53;;;355.60;;
6485;SDS011;3276;48.490;9.222;2023-04-06T12:32:44;310.77;;;291.43;;
6485;SDS011;3276;48.490;9.222;2023-04-06T12:35:09;408.70;;;382.33;;
6485;SDS011;3276;48.490;9.222;2023-04-06T12:37:36;321.43;;;301.13;;
6485;SDS011;3276;48.490;9.222;2023-04-06T12:40:02;329.03;;;306.70;;
6485;SDS011;3276;48.490;9.222;2023-04-06T12:42:29;376.97;;;352.87;;
6485;SDS011;3276;48.490;9.222;2023-04-06T12:44:55;224.07;;;208.20;;
6485;SDS011;3276;48.490;9.222;2023-04-06T12:47:20;307.80;;;288.23;;
6485;SDS011;3276;48.490;9.222;2023-04-06T12:49:47;317.20;;;297.53;;
6485;SDS011;3276;48.490;9.222;2023-04-06T12:52:13;335.57;;;315.20;;
6485;SDS011;3276;48.490;9.222;2023-04-06T12:54:38;262.93;;;245.57;;
6485;SDS011;3276;48.490;9.222;2023-04-06T12:57:04;291.20;;;272.53;;
6485;SDS011;3276;48.490;9.222;2023-04-06T12:59:29;292.23;;;273.57;;
6485;SDS011;3276;48.490;9.222;2023-04-06T13:02:00;337.63;;;316.10;;
6485;SDS011;3276;48.490;9.222;2023-04-06T13:04:25;304.53;;;285.73;;
6485;SDS011;3276;48.490;9.222;2023-04-06T13:06:51;303.90;;;284.47;;
6485;SDS011;3276;48.490;9.222;2023-04-06T13:09:17;360.13;;;336.73;;
6485;SDS011;3276;48.490;9.222;2023-04-06T13:11:42;338.00;;;315.80;;
6485;SDS011;3276;48.490;9.222;2023-04-06T13:14:08;276.23;;;258.37;;
6485;SDS011;3276;48.490;9.222;2023-04-06T13:16:33;360.30;;;333.70;;
6485;SDS011;3276;48.490;9.222;2023-04-06T13:19:00;458.70;;;427.30;;
6485;SDS011;3276;48.490;9.222;2023-04-06T13:21:26;158.33;;;145.50;;
6485;SDS011;3276;48.490;9.222;2023-04-06T13:23:51;303.83;;;284.07;;
6485;SDS011;3276;48.490;9.222;2023-04-06T13:26:17;424.13;;;397.43;;
6485;SDS011;3276;48.490;9.222;2023-04-06T13:28:42;304.37;;;285.07;;
6485;SDS011;3276;48.490;9.222;2023-04-06T13:31:08;203.43;;;188.33;;
6485;SDS011;3276;48.490;9.222;2023-04-06T13:33:34;263.00;;;245.67;;
6485;SDS011;3276;48.490;9.222;2023-04-06T13:36:00;241.97;;;225.47;;
6485;SDS011;3276;48.490;9.222;2023-04-06T13:38:26;349.43;;;327.17;;
6485;SDS011;3276;48.490;9.222;2023-04-06T13:40:51;200.83;;;186.67;;
6485;SDS011;3276;48.490;9.222;2023-04-06T13:43:17;332.93;;;312.00;;
6485;SDS011;3276;48.490;9.222;2023-04-06T13:45:48;299.50;;;280.47;;
6485;SDS011;3276;48.490;9.222;2023-04-06T13:48:15;380.97;;;358.67;;
6485;SDS011;3276;48.490;9.222;2023-04-06T13:50:40;314.53;;;294.83;;
6485;SDS011;3276;48.490;9.222;2023-04-06T13:53:06;331.43;;;312.00;;
6485;SDS011;3276;48.490;9.222;2023-04-06T13:55:34;337.17;;;317.00;;
6485;SDS011;3276;48.490;9.222;2023-04-06T13:58:01;190.03;;;175.73;;
6485;SDS011;3276;48.490;9.222;2023-04-06T14:00:29;290.07;;;271.43;;
6485;SDS011;3276;48.490;9.222;2023-04-06T14:02:56;188.30;;;174.30;;
6485;SDS011;3276;48.490;9.222;2023-04-06T14:05:22;276.33;;;258.97;;
6485;SDS011;3276;48.490;9.222;2023-04-06T14:07:49;331.53;;;311.17;;
6485;SDS011;3276;48.490;9.222;2023-04-06T14:10:16;311.00;;;290.57;;
6485;SDS011;3276;48.490;9.222;2023-04-06T14:12:48;356.30;;;334.50;;
6485;SDS011;3276;48.490;9.222;2023-04-06T14:15:15;266.63;;;249.20;;
6485;SDS011;3276;48.490;9.222;2023-04-06T14:17:44;328.67;;;308.77;;
6485;SDS011;3276;48.490;9.222;2023-04-06T14:20:11;279.57;;;261.43;;
6485;SDS011;3276;48.490;9.222;2023-04-06T14:22:39;382.57;;;358.17;;
6485;SDS011;3276;48.490;9.222;2023-04-06T14:25:06;276.47;;;258.20;;
6485;SDS011;3276;48.490;9.222;2023-04-06T14:27:32;366.80;;;345.03;;
6485;SDS011;3276;48.490;9.222;2023-04-06T14:29:57;257.07;;;240.87;;
6485;SDS011;3276;48.490;9.222;2023-04-06T14:32:23;306.60;;;287.73;;
6485;SDS011;3276;48.490;9.222;2023-04-06T14:34:49;328.57;;;307.67;;
6485;SDS011;3276;48.490;9.222;2023-04-06T14:37:15;325.43;;;305.50;;